Time;durP1;ratioP1;P1;durP2;ratioP2;P2;SDS_P1;SDS_P2;PMS_P1;PMS_P2;Temp;Humidity;BMP_temperature;BMP_pressure;BME280_temperature;BME280_humidity;BME280_pressure;Samples;Min_cycle;Max_cycle;Signal;HPM_P1;HPM_P2
2023/04/03 00:02:08;;;;;;;0.93;0.47;;;3.70;99.90;;;;;;5061361;28;20042;-87
2023/04/03 00:04:34;;;;;;;0.68;0.50;;;3.70;99.90;;;;;;5077465;28;20389;-87
2023/04/03 00:07:00;;;;;;;0.63;0.50;;;3.80;99.90;;;;;;5060813;28;20028;-87
2023/04/03 00:09:26;;;;;;;0.88;0.60;;;3.80;99.90;;;;;;5077669;28;20028;-87
2023/04/03 00:11:51;;;;;;;0.90;0.50;;;3.80;99.90;;;;;;5077731;28;20028;-87
2023/04/03 00:14:17;;;;;;;0.75;0.60;;;3.80;99.90;;;;;;5060825;28;20416;-87
2023/04/03 00:16:43;;;;;;;0.88;0.60;;;3.80;99.90;;;;;;5060694;28;20032;-87
2023/04/03 00:19:11;;;;;;;0.95;0.60;;;3.70;99.90;;;;;;5060733;28;20042;-86
2023/04/03 00:21:37;;;;;;;0.52;0.45;;;3.70;99.90;;;;;;5077699;28;20028;-88
2023/04/03 00:24:03;;;;;;;0.60;0.50;;;3.60;99.90;;;;;;5076997;28;20024;-87
2023/04/03 00:26:29;;;;;;;0.77;0.68;;;3.50;99.90;;;;;;5077198;28;20032;-86
2023/04/03 00:28:55;;;;;;;1.10;0.60;;;3.50;99.90;;;;;;5093175;28;20032;-87
2023/04/03 00:31:21;;;;;;;2.45;1.00;;;3.50;99.90;;;;;;5081209;28;20397;-87
2023/04/03 00:33:47;;;;;;;1.48;0.90;;;3.50;99.90;;;;;;5080538;28;20031;-87
2023/04/03 00:36:13;;;;;;;1.33;0.70;;;3.50;99.90;;;;;;5098044;28;20030;-87
2023/04/03 00:38:39;;;;;;;1.20;0.60;;;3.40;99.90;;;;;;5115625;28;20481;-87
2023/04/03 00:41:06;;;;;;;1.58;0.90;;;3.40;99.90;;;;;;5097305;28;20034;-87
2023/04/03 00:43:32;;;;;;;1.73;0.70;;;3.40;99.90;;;;;;5099264;28;20034;-87
2023/04/03 00:45:58;;;;;;;0.63;0.47;;;3.40;99.90;;;;;;5115401;28;20094;-87
2023/04/03 00:48:32;;;;;;;0.95;0.60;;;3.50;99.90;;;;;;5080650;28;20032;-86
2023/04/03 00:50:59;;;;;;;1.25;0.70;;;3.50;99.90;;;;;;5098438;28;20030;-86
2023/04/03 00:53:33;;;;;;;2.13;0.80;;;3.50;99.90;;;;;;5080358;28;20081;-86
2023/04/03 00:56:00;;;;;;;2.40;1.02;;;3.50;99.90;;;;;;5096818;28;20523;-87
2023/04/03 00:58:36;;;;;;;1.08;0.70;;;3.60;99.90;;;;;;5079309;28;20062;-87
2023/04/03 01:01:08;;;;;;;1.13;0.70;;;3.60;99.90;;;;;;5096837;28;20016;-87
2023/04/03 01:03:33;;;;;;;1.38;0.77;;;3.60;99.90;;;;;;5097064;28;20020;-87
2023/04/03 01:06:00;;;;;;;1.23;0.70;;;3.60;99.90;;;;;;5081567;28;20027;-86
2023/04/03 01:08:26;;;;;;;1.65;0.93;;;3.60;99.90;;;;;;5115311;28;20075;-86
2023/04/03 01:10:51;;;;;;;1.45;0.70;;;3.60;99.90;;;;;;5096997;28;20055;-85
2023/04/03 01:13:27;;;;;;;1.17;0.70;;;3.50;99.90;;;;;;5079991;28;20034;-86
2023/04/03 01:15:54;;;;;;;1.40;0.70;;;3.50;99.90;;;;;;5097872;28;20111;-86
2023/04/03 01:18:22;;;;;;;1.52;0.65;;;3.50;99.90;;;;;;5096887;28;20027;-85
2023/04/03 01:21:10;;;;;;;1.13;0.70;;;3.50;99.90;;;;;;5096607;28;20597;-85
2023/04/03 01:23:45;;;;;;;1.50;0.80;;;3.40;99.90;;;;;;5096930;28;20051;-86
2023/04/03 01:26:11;;;;;;;0.90;0.70;;;3.40;99.90;;;;;;5114891;28;20385;-86
2023/04/03 01:28:37;;;;;;;1.83;0.73;;;3.40;99.90;;;;;;5080385;28;20035;-85
2023/04/03 01:31:47;;;;;;;1.25;0.80;;;3.40;99.90;;;;;;5096433;28;20027;-86
2023/04/03 01:34:12;;;;;;;1.48;0.80;;;3.40;99.90;;;;;;4995797;28;20037;-86
2023/04/03 01:36:38;;;;;;;1.27;0.80;;;3.30;99.90;;;;;;4995791;28;20038;-85
2023/04/03 01:39:04;;;;;;;1.15;0.75;;;3.30;99.90;;;;;;5026390;28;20032;-85
2023/04/03 01:41:29;;;;;;;1.10;0.85;;;3.40;99.90;;;;;;5079216;28;20034;-85
2023/04/03 01:43:55;;;;;;;1.92;0.80;;;3.40;99.90;;;;;;5079029;28;20034;-85
2023/04/03 01:46:21;;;;;;;1.20;0.90;;;3.40;99.90;;;;;;5062448;28;20114;-85
2023/04/03 01:48:47;;;;;;;1.98;1.00;;;3.30;99.90;;;;;;5095843;28;20062;-86
2023/04/03 01:51:13;;;;;;;2.15;1.38;;;3.30;99.90;;;;;;5095799;28;20019;-85
2023/04/03 01:53:39;;;;;;;1.83;1.20;;;3.30;99.90;;;;;;5095703;28;20088;-85
2023/04/03 01:56:05;;;;;;;1.65;1.13;;;3.20;99.90;;;;;;5095593;28;20035;-85
2023/04/03 01:58:31;;;;;;;1.30;1.00;;;3.20;99.90;;;;;;5096030;28;20059;-85
2023/04/03 02:00:57;;;;;;;2.50;1.40;;;3.30;99.90;;;;;;5078906;28;20408;-85
2023/04/03 02:03:23;;;;;;;2.38;1.42;;;3.30;99.90;;;;;;5095473;28;20047;-86
2023/04/03 02:05:49;;;;;;;2.45;1.40;;;3.30;99.90;;;;;;5095736;28;20168;-85
2023/04/03 02:08:17;;;;;;;2.67;1.60;;;3.30;99.90;;;;;;5079148;28;20408;-86
2023/04/03 02:10:44;;;;;;;2.42;1.58;;;3.20;99.90;;;;;;5117978;28;20026;-86
2023/04/03 02:13:11;;;;;;;2.80;1.52;;;3.20;99.90;;;;;;5100403;28;20377;-86
2023/04/03 02:15:39;;;;;;;2.47;1.50;;;3.20;99.90;;;;;;5083292;28;20145;-86
2023/04/03 02:18:06;;;;;;;3.40;1.45;;;3.10;99.90;;;;;;5118660;28;20512;-87
2023/04/03 02:20:31;;;;;;;3.08;1.73;;;3.10;99.90;;;;;;5099743;28;20030;-87
2023/04/03 02:22:57;;;;;;;3.38;1.77;;;3.10;99.90;;;;;;5082642;28;20020;-87
2023/04/03 02:25:23;;;;;;;2.38;1.80;;;3.00;99.90;;;;;;5082843;28;20067;-86
2023/04/03 02:27:49;;;;;;;3.95;2.13;;;3.10;99.90;;;;;;5066022;28;20031;-85
2023/04/03 02:30:15;;;;;;;2.90;2.00;;;3.10;99.90;;;;;;5117560;28;20037;-86
2023/04/03 02:32:42;;;;;;;4.07;2.55;;;3.10;99.90;;;;;;5117533;28;20119;-85
2023/04/03 02:35:09;;;;;;;3.90;2.20;;;3.00;99.90;;;;;;5065702;28;20520;-85
2023/04/03 02:37:35;;;;;;;3.83;2.70;;;3.00;99.90;;;;;;5099115;28;20122;-87
2023/04/03 02:40:02;;;;;;;4.38;2.72;;;2.90;99.90;;;;;;5082250;28;20062;-86
2023/04/03 02:42:28;;;;;;;4.03;2.50;;;2.90;99.90;;;;;;5099054;28;20024;-86
2023/04/03 02:44:54;;;;;;;3.10;2.40;;;2.80;99.90;;;;;;5066111;28;20342;-87
2023/04/03 02:47:19;;;;;;;3.45;2.35;;;2.80;99.90;;;;;;5082331;28;20062;-87
2023/04/03 02:49:45;;;;;;;4.05;2.58;;;2.80;99.90;;;;;;5065482;28;20059;-86
2023/04/03 02:52:12;;;;;;;4.00;2.70;;;2.80;99.90;;;;;;5081997;28;20051;-87
2023/04/03 02:54:38;;;;;;;4.40;2.75;;;2.80;99.90;;;;;;5065401;28;20489;-87
2023/04/03 02:57:03;;;;;;;4.80;3.10;;;2.80;99.90;;;;;;5081846;28;20034;-86
2023/04/03 02:59:29;;;;;;;4.95;3.20;;;2.80;99.90;;;;;;5065165;28;20032;-86
2023/04/03 03:01:56;;;;;;;5.10;2.90;;;2.80;99.90;;;;;;5081740;28;20028;-86
2023/04/03 03:04:22;;;;;;;5.53;3.33;;;2.80;99.90;;;;;;5099290;28;20392;-86
2023/04/03 03:06:47;;;;;;;5.40;3.55;;;2.70;99.90;;;;;;5098765;28;20024;-86
2023/04/03 03:09:13;;;;;;;5.93;3.63;;;2.70;99.90;;;;;;5065049;28;20027;-86
2023/04/03 03:11:39;;;;;;;4.90;3.33;;;2.70;99.90;;;;;;5065047;28;20035;-84
2023/04/03 03:14:05;;;;;;;4.57;3.33;;;2.60;99.90;;;;;;5098430;28;20036;-86
2023/04/03 03:16:31;;;;;;;4.75;2.72;;;2.60;99.90;;;;;;5064977;28;20073;-85
2023/04/03 03:18:56;;;;;;;5.03;3.17;;;2.60;99.90;;;;;;5081755;28;20030;-85
2023/04/03 03:21:22;;;;;;;4.25;2.95;;;2.60;99.90;;;;;;5080668;28;20440;-86
2023/04/03 03:23:48;;;;;;;4.93;3.17;;;2.60;99.90;;;;;;5081338;28;20569;-85
2023/04/03 03:26:14;;;;;;;3.88;2.85;;;2.60;99.90;;;;;;5064819;28;20562;-85
2023/04/03 03:28:40;;;;;;;5.65;3.28;;;2.50;99.90;;;;;;5116631;28;20028;-85
2023/04/03 03:31:07;;;;;;;5.13;3.33;;;2.50;99.90;;;;;;5081296;28;20040;-87
2023/04/03 03:33:33;;;;;;;5.25;3.22;;;2.50;99.90;;;;;;5098005;28;20550;-86
2023/04/03 03:35:59;;;;;;;5.80;3.72;;;2.50;99.90;;;;;;5098154;28;20031;-86
2023/04/03 03:38:25;;;;;;;5.28;3.58;;;2.50;99.90;;;;;;5064628;28;20135;-86
2023/04/03 03:40:52;;;;;;;6.60;3.83;;;2.50;99.90;;;;;;5064623;28;20555;-86
2023/04/03 03:43:18;;;;;;;4.88;3.45;;;2.40;99.90;;;;;;5080917;28;20027;-85
2023/04/03 03:45:45;;;;;;;4.97;3.40;;;2.40;99.90;;;;;;5116125;28;20073;-86
2023/04/03 03:48:11;;;;;;;7.38;4.18;;;2.40;99.90;;;;;;5097759;28;20048;-86
2023/04/03 03:50:37;;;;;;;5.32;3.40;;;2.50;99.90;;;;;;5081121;28;20089;-85
2023/04/03 03:53:03;;;;;;;5.47;3.67;;;2.50;99.90;;;;;;5097641;28;20020;-86
2023/04/03 03:55:28;;;;;;;5.88;3.17;;;2.40;99.90;;;;;;5080870;28;20031;-85
2023/04/03 03:57:54;;;;;;;6.43;4.03;;;2.50;99.90;;;;;;5080732;28;20031;-87
2023/04/03 04:00:20;;;;;;;5.75;3.70;;;2.40;99.90;;;;;;5080903;28;20043;-85
2023/04/03 04:02:46;;;;;;;5.82;3.80;;;2.40;99.90;;;;;;5080524;28;20049;-86
2023/04/03 04:05:12;;;;;;;5.65;3.42;;;2.50;99.90;;;;;;5080632;28;20023;-86
2023/04/03 04:07:38;;;;;;;6.18;3.50;;;2.50;99.90;;;;;;5097621;28;20072;-86
2023/04/03 04:10:04;;;;;;;5.35;3.40;;;2.50;99.90;;;;;;5080672;28;20027;-86
2023/04/03 04:12:30;;;;;;;6.38;3.53;;;2.50;99.90;;;;;;5063897;28;20097;-86
2023/04/03 04:14:56;;;;;;;5.90;3.90;;;2.50;99.90;;;;;;5080731;28;20032;-87
2023/04/03 04:17:21;;;;;;;5.35;3.15;;;2.40;99.90;;;;;;5097640;28;20059;-87
2023/04/03 04:19:47;;;;;;;5.95;3.50;;;2.40;99.90;;;;;;5064150;28;20032;-86
2023/04/03 04:22:13;;;;;;;5.45;3.35;;;2.40;99.90;;;;;;5063872;28;20053;-86
2023/04/03 04:24:39;;;;;;;6.28;4.05;;;2.40;99.90;;;;;;5097513;28;20551;-86
2023/04/03 04:27:05;;;;;;;5.95;4.28;;;2.40;99.90;;;;;;5063878;28;20081;-85
2023/04/03 04:29:35;;;;;;;6.93;3.90;;;2.40;99.90;;;;;;5063745;28;20023;-85
2023/04/03 04:32:02;;;;;;;5.70;3.60;;;2.40;99.90;;;;;;5080987;28;20114;-86
2023/04/03 04:34:28;;;;;;;8.20;4.10;;;2.40;99.90;;;;;;5080548;28;20390;-85
2023/04/03 04:36:53;;;;;;;7.53;4.25;;;2.40;99.90;;;;;;5080454;28;20031;-85
2023/04/03 04:39:19;;;;;;;6.97;4.28;;;2.40;99.90;;;;;;5097025;28;20401;-86
2023/04/03 04:41:45;;;;;;;6.47;4.22;;;2.30;99.90;;;;;;5097237;28;20027;-86
2023/04/03 04:44:10;;;;;;;7.18;4.53;;;2.40;99.90;;;;;;5064600;28;20034;-85
2023/04/03 04:46:36;;;;;;;6.85;4.20;;;2.40;99.90;;;;;;5063667;28;20024;-85
2023/04/03 04:49:02;;;;;;;8.35;4.30;;;2.30;99.90;;;;;;5063459;28;20034;-85
2023/04/03 04:51:27;;;;;;;6.93;4.20;;;2.30;99.90;;;;;;5096923;28;20027;-86
2023/04/03 04:53:53;;;;;;;8.35;4.45;;;2.30;99.90;;;;;;5080859;28;20112;-82
2023/04/03 04:56:19;;;;;;;7.95;4.25;;;2.30;99.90;;;;;;5064563;28;20070;-82
2023/04/03 04:58:45;;;;;;;7.97;4.80;;;2.30;99.90;;;;;;5116316;28;20016;-83
2023/04/03 05:01:11;;;;;;;7.55;4.88;;;2.30;99.90;;;;;;5099181;28;20036;-83
2023/04/03 05:03:36;;;;;;;11.23;5.97;;;2.20;99.90;;;;;;5082190;28;20538;-83
2023/04/03 05:06:03;;;;;;;6.40;4.07;;;2.20;99.90;;;;;;5098270;28;20085;-82
2023/04/03 05:08:29;;;;;;;8.30;4.82;;;2.20;99.90;;;;;;5116171;28;20061;-82
2023/04/03 05:10:55;;;;;;;7.65;4.95;;;2.30;99.90;;;;;;5064656;28;20027;-83
2023/04/03 05:13:21;;;;;;;8.05;5.10;;;2.30;99.90;;;;;;5098271;28;20035;-83
2023/04/03 05:15:47;;;;;;;7.65;4.75;;;2.30;99.90;;;;;;5080563;28;20023;-82
2023/04/03 05:18:13;;;;;;;7.97;4.78;;;2.30;99.90;;;;;;5080639;28;20114;-82
2023/04/03 05:20:39;;;;;;;9.55;5.10;;;2.30;99.90;;;;;;5097877;28;20081;-82
2023/04/03 05:23:05;;;;;;;6.93;4.93;;;2.30;99.90;;;;;;5116964;28;20023;-82
2023/04/03 05:25:31;;;;;;;9.23;5.35;;;2.30;99.90;;;;;;5063711;28;20028;-82
2023/04/03 05:27:57;;;;;;;7.43;4.80;;;2.30;99.90;;;;;;5098012;28;20028;-82
2023/04/03 05:30:23;;;;;;;8.52;5.20;;;2.20;99.90;;;;;;5081532;28;20374;-82
2023/04/03 05:32:48;;;;;;;9.27;5.95;;;2.30;99.90;;;;;;5116422;28;20038;-82
2023/04/03 05:35:14;;;;;;;9.32;5.50;;;2.20;99.90;;;;;;5080986;28;20035;-82
2023/04/03 05:37:40;;;;;;;8.90;5.03;;;2.20;99.90;;;;;;5080972;28;20397;-82
2023/04/03 05:40:08;;;;;;;8.35;5.03;;;2.20;99.90;;;;;;5097698;28;20024;-83
2023/04/03 05:42:34;;;;;;;9.05;5.38;;;2.20;99.90;;;;;;5097246;28;20028;-81
2023/04/03 05:44:59;;;;;;;8.55;5.47;;;2.20;99.90;;;;;;5080168;28;20042;-82
2023/04/03 05:47:25;;;;;;;8.43;5.18;;;2.10;99.90;;;;;;5116306;28;20489;-82
2023/04/03 05:49:51;;;;;;;7.05;4.80;;;2.20;99.90;;;;;;5097548;28;20102;-82
2023/04/03 05:52:28;;;;;;;8.35;4.53;;;2.20;99.90;;;;;;5097896;28;20055;-81
2023/04/03 05:54:54;;;;;;;7.47;4.53;;;2.30;99.90;;;;;;5098854;28;20482;-82
2023/04/03 05:57:20;;;;;;;8.20;5.07;;;2.20;99.90;;;;;;5100654;28;20062;-82
2023/04/03 05:59:47;;;;;;;7.88;4.25;;;2.20;99.90;;;;;;5102092;28;20027;-82
2023/04/03 06:02:17;;;;;;;8.30;5.15;;;2.20;99.90;;;;;;5101183;28;20019;-82
2023/04/03 06:04:44;;;;;;;6.85;4.63;;;2.30;99.90;;;;;;5118694;28;20401;-81
2023/04/03 06:07:15;;;;;;;8.35;4.97;;;2.40;99.90;;;;;;5118738;28;20062;-80
2023/04/03 06:09:42;;;;;;;6.90;4.72;;;2.40;99.90;;;;;;5135149;28;20047;-82
2023/04/03 06:12:08;;;;;;;7.50;4.55;;;2.50;99.90;;;;;;5116601;28;20024;-83
2023/04/03 06:14:35;;;;;;;11.57;5.47;;;2.50;99.90;;;;;;5106571;28;20034;-83
2023/04/03 06:17:01;;;;;;;7.75;4.70;;;2.50;99.90;;;;;;5105599;28;20032;-83
2023/04/03 06:19:27;;;;;;;8.10;5.00;;;2.50;99.90;;;;;;5105428;28;20031;-83
2023/04/03 06:21:54;;;;;;;10.85;6.05;;;2.50;99.90;;;;;;5123648;28;20016;-83
2023/04/03 06:24:21;;;;;;;7.07;4.85;;;2.50;99.90;;;;;;5122763;28;20023;-83
2023/04/03 06:26:48;;;;;;;7.70;5.03;;;2.50;99.90;;;;;;5104364;28;20123;-83
2023/04/03 06:29:14;;;;;;;6.95;4.25;;;2.50;99.90;;;;;;5104803;28;20123;-83
2023/04/03 06:31:40;;;;;;;7.22;4.47;;;2.50;99.90;;;;;;5087790;28;20474;-82
2023/04/03 06:34:07;;;;;;;6.80;4.40;;;2.50;99.90;;;;;;5086385;28;20055;-83
2023/04/03 06:36:34;;;;;;;7.72;4.55;;;2.60;99.90;;;;;;5086836;28;20050;-83
2023/04/03 06:39:01;;;;;;;6.30;3.70;;;2.70;99.90;;;;;;5103508;28;20022;-83
2023/04/03 06:41:27;;;;;;;8.57;4.70;;;2.70;99.90;;;;;;5085184;28;20032;-84
2023/04/03 06:43:53;;;;;;;7.85;5.38;;;2.80;99.90;;;;;;5084986;28;20490;-84
2023/04/03 06:46:22;;;;;;;7.22;3.92;;;2.70;99.90;;;;;;5102543;28;20027;-83
2023/04/03 06:48:49;;;;;;;7.13;4.03;;;2.80;99.90;;;;;;5102734;28;20042;-83
2023/04/03 06:51:27;;;;;;;7.20;4.40;;;2.80;99.90;;;;;;5085206;28;20031;-84
2023/04/03 06:53:55;;;;;;;6.45;4.20;;;2.80;99.90;;;;;;5101899;28;20434;-84
2023/04/03 06:56:22;;;;;;;6.38;4.00;;;2.80;99.90;;;;;;5104802;28;20023;-85
2023/04/03 06:58:47;;;;;;;6.88;4.13;;;2.80;99.90;;;;;;5107355;28;20024;-84
2023/04/03 07:01:16;;;;;;;6.15;3.92;;;2.80;99.90;;;;;;5088934;28;20031;-81
2023/04/03 07:03:42;;;;;;;6.75;4.07;;;2.90;99.90;;;;;;5123681;28;20024;-84
2023/04/03 07:06:11;;;;;;;6.45;3.58;;;2.90;99.90;;;;;;5124299;28;20061;-84
2023/04/03 07:08:38;;;;;;;7.20;3.78;;;2.90;99.90;;;;;;5104712;28;20557;-83
2023/04/03 07:11:04;;;;;;;9.02;4.20;;;2.90;99.90;;;;;;5088055;28;20053;-85
2023/04/03 07:13:30;;;;;;;6.28;3.88;;;2.90;99.90;;;;;;5104051;28;20024;-82
2023/04/03 07:15:56;;;;;;;5.28;3.63;;;2.90;99.90;;;;;;5085699;28;20042;-84
2023/04/03 07:18:22;;;;;;;6.18;3.63;;;2.90;99.90;;;;;;5086201;28;20066;-84
2023/04/03 07:20:48;;;;;;;5.38;4.13;;;2.90;99.90;;;;;;5103448;28;20026;-84
2023/04/03 07:23:14;;;;;;;5.25;3.20;;;2.90;99.90;;;;;;5085786;28;20028;-83
2023/04/03 07:25:44;;;;;;;5.75;3.20;;;2.90;99.90;;;;;;5102842;28;20090;-83
2023/04/03 07:28:09;;;;;;;7.43;4.00;;;3.00;99.90;;;;;;5087068;28;20038;-83
2023/04/03 07:30:45;;;;;;;5.57;3.88;;;3.00;99.90;;;;;;5102120;28;20035;-83
2023/04/03 07:33:12;;;;;;;5.75;3.40;;;3.00;99.90;;;;;;5102189;28;20027;-83
2023/04/03 07:35:39;;;;;;;4.63;2.90;;;3.10;99.90;;;;;;5102172;28;20030;-83
2023/04/03 07:38:05;;;;;;;6.03;3.35;;;3.10;99.90;;;;;;5085320;28;20066;-83
2023/04/03 07:40:31;;;;;;;5.40;3.60;;;3.00;99.90;;;;;;5101886;28;20505;-83
2023/04/03 07:42:57;;;;;;;5.05;3.10;;;3.10;99.90;;;;;;5101691;28;20047;-83
2023/04/03 07:45:23;;;;;;;5.20;3.10;;;3.20;99.90;;;;;;5085173;28;20023;-84
2023/04/03 07:47:49;;;;;;;5.03;3.03;;;3.20;99.90;;;;;;5084263;28;20039;-83
2023/04/03 07:50:15;;;;;;;5.80;2.92;;;3.20;99.90;;;;;;5084810;28;20028;-83
2023/04/03 07:52:42;;;;;;;5.07;3.08;;;3.20;99.90;;;;;;5084653;28;20038;-84
2023/04/03 07:55:08;;;;;;;4.47;2.92;;;3.10;99.90;;;;;;5119784;28;20045;-84
2023/04/03 07:57:34;;;;;;;5.03;2.88;;;3.20;99.90;;;;;;5101318;28;20053;-84
2023/04/03 08:00:01;;;;;;;5.45;3.40;;;3.20;99.90;;;;;;5101165;28;20028;-82
2023/04/03 08:02:26;;;;;;;4.30;3.30;;;3.20;99.90;;;;;;5101591;28;20028;-83
2023/04/03 08:04:52;;;;;;;4.28;2.63;;;3.20;99.90;;;;;;5118983;28;20055;-83
2023/04/03 08:07:18;;;;;;;4.88;3.17;;;3.30;99.90;;;;;;5119047;28;20036;-84
2023/04/03 08:09:44;;;;;;;3.58;2.50;;;3.40;99.90;;;;;;5100722;28;20095;-83
2023/04/03 08:12:11;;;;;;;6.85;3.97;;;3.50;99.90;;;;;;5101242;28;20035;-83
2023/04/03 08:14:37;;;;;;;5.38;3.53;;;3.50;99.90;;;;;;5100147;28;20024;-83
2023/04/03 08:17:04;;;;;;;5.40;3.30;;;3.60;99.90;;;;;;5118704;28;20088;-83
2023/04/03 08:19:31;;;;;;;5.53;4.00;;;3.70;99.90;;;;;;5119926;28;20024;-83
2023/04/03 08:21:58;;;;;;;3.50;2.63;;;3.70;99.90;;;;;;5083454;28;20442;-83
2023/04/03 08:24:25;;;;;;;3.75;2.63;;;3.80;99.90;;;;;;5083943;28;20019;-83
2023/04/03 08:26:50;;;;;;;5.10;2.40;;;3.80;99.90;;;;;;5118826;28;20024;-83
2023/04/03 08:29:16;;;;;;;4.47;2.72;;;3.80;99.90;;;;;;5083070;28;20045;-82
2023/04/03 08:31:42;;;;;;;4.20;2.78;;;3.90;99.90;;;;;;5099412;28;20102;-83
2023/04/03 08:34:08;;;;;;;5.68;2.88;;;4.10;99.90;;;;;;5098819;28;20035;-83
2023/04/03 08:36:34;;;;;;;5.40;3.25;;;4.30;99.90;;;;;;5081510;28;20396;-83
2023/04/03 08:39:00;;;;;;;4.55;2.60;;;4.30;99.90;;;;;;5081945;28;20505;-83
2023/04/03 08:41:31;;;;;;;4.57;2.90;;;4.30;99.90;;;;;;5082210;28;20106;-83
2023/04/03 08:44:25;;;;;;;3.45;2.35;;;4.40;99.90;;;;;;5116834;28;20028;-83
2023/04/03 08:47:16;;;;;;;4.50;2.53;;;4.40;99.90;;;;;;5117175;28;20053;-82
2023/04/03 08:49:59;;;;;;;4.75;2.42;;;4.40;99.90;;;;;;5097992;28;20031;-83
2023/04/03 08:52:35;;;;;;;4.22;2.55;;;4.40;99.90;;;;;;5117874;28;20481;-83
2023/04/03 08:55:06;;;;;;;4.88;2.60;;;4.50;99.90;;;;;;5098206;28;20055;-84
2023/04/03 08:57:42;;;;;;;3.85;2.42;;;4.40;99.90;;;;;;5082080;28;20489;-82
2023/04/03 09:00:30;;;;;;;4.28;2.92;;;4.40;99.90;;;;;;5097919;28;20115;-82
2023/04/03 09:02:56;;;;;;;3.63;2.55;;;4.40;99.90;;;;;;5098207;28;20370;-82
2023/04/03 09:05:48;;;;;;;5.00;2.38;;;4.40;99.90;;;;;;5099866;28;20498;-81
2023/04/03 09:08:36;;;;;;;3.97;2.45;;;4.40;99.90;;;;;;5117594;28;20028;-83
2023/04/03 09:11:27;;;;;;;3.75;2.22;;;4.40;99.90;;;;;;5098725;28;20023;-82
2023/04/03 09:13:57;;;;;;;4.37;2.77;;;4.50;99.90;;;;;;5116402;28;20385;-82
2023/04/03 09:16:37;;;;;;;4.32;2.47;;;4.40;99.90;;;;;;5116743;28;20284;-81
2023/04/03 09:19:16;;;;;;;3.35;2.50;;;4.30;99.90;;;;;;5115847;28;20072;-82
2023/04/03 09:21:42;;;;;;;2.92;1.90;;;4.10;99.90;;;;;;5116633;28;20153;-81
2023/04/03 09:24:12;;;;;;;3.65;2.28;;;4.20;99.90;;;;;;5097902;28;20077;-81
2023/04/03 09:26:50;;;;;;;4.80;2.45;;;4.20;99.90;;;;;;5098413;28;20034;-82
2023/04/03 09:29:24;;;;;;;3.15;2.30;;;4.20;99.90;;;;;;5116248;28;20549;-81
2023/04/03 09:31:56;;;;;;;4.05;2.05;;;4.30;99.90;;;;;;5098007;28;20027;-82
2023/04/03 09:34:31;;;;;;;4.32;2.00;;;4.30;99.90;;;;;;5114814;28;20028;-82
2023/04/03 09:37:05;;;;;;;3.03;2.13;;;4.40;99.90;;;;;;5095981;28;20027;-81
2023/04/03 09:39:32;;;;;;;3.15;2.03;;;4.50;99.90;;;;;;5114165;28;20022;-81
2023/04/03 09:42:15;;;;;;;3.10;1.73;;;4.60;99.90;;;;;;5096085;28;20024;-81
2023/04/03 09:44:41;;;;;;;5.93;3.60;;;4.60;99.90;;;;;;5114405;28;20019;-81
2023/04/03 09:47:23;;;;;;;3.72;2.00;;;4.50;99.90;;;;;;5114453;28;20028;-81
2023/04/03 09:49:50;;;;;;;3.30;2.20;;;4.50;99.90;;;;;;5096778;28;20051;-81
2023/04/03 09:52:24;;;;;;;3.83;1.92;;;4.50;99.90;;;;;;5079396;28;20027;-82
2023/04/03 09:54:50;;;;;;;3.67;1.90;;;4.40;99.90;;;;;;5115335;28;20030;-82
2023/04/03 09:57:15;;;;;;;2.45;1.52;;;4.40;99.90;;;;;;5116908;28;20107;-82
2023/04/03 09:59:59;;;;;;;3.58;1.92;;;4.50;99.90;;;;;;5065163;28;20032;-81
2023/04/03 10:02:37;;;;;;;3.55;2.00;;;4.40;99.90;;;;;;5096473;28;20028;-81
2023/04/03 10:05:24;;;;;;;2.58;1.67;;;4.40;99.90;;;;;;5114641;28;20027;-81
2023/04/03 10:07:50;;;;;;;3.35;1.83;;;4.40;99.90;;;;;;5114952;28;20031;-81
2023/04/03 10:10:23;;;;;;;3.03;1.80;;;4.60;99.90;;;;;;5096429;28;20039;-81
2023/04/03 10:13:03;;;;;;;3.53;1.70;;;4.60;99.90;;;;;;5117441;28;20389;-81
2023/04/03 10:15:36;;;;;;;3.33;1.77;;;4.60;99.90;;;;;;5102075;28;20384;-81
2023/04/03 10:18:14;;;;;;;2.92;1.73;;;4.70;99.90;;;;;;5097262;28;20024;-81
2023/04/03 10:20:44;;;;;;;3.92;1.90;;;4.70;99.90;;;;;;5095769;28;20107;-81
2023/04/03 10:23:42;;;;;;;2.63;1.40;;;4.70;99.90;;;;;;5113239;28;20046;-81
2023/04/03 10:26:38;;;;;;;3.72;2.22;;;4.70;99.90;;;;;;5114396;28;20345;-81
2023/04/03 10:29:30;;;;;;;3.00;1.70;;;4.70;99.90;;;;;;5096416;28;20051;-82
2023/04/03 10:32:17;;;;;;;2.63;1.60;;;4.70;99.90;;;;;;5062502;28;20452;-81
2023/04/03 10:34:44;;;;;;;2.70;1.52;;;4.60;99.90;;;;;;5101301;28;20028;-80
2023/04/03 10:37:13;;;;;;;2.55;1.50;;;4.40;99.90;;;;;;5084601;28;20027;-81
2023/04/03 10:39:53;;;;;;;2.88;1.63;;;4.50;99.90;;;;;;5119736;28;20040;-81
2023/04/03 10:42:40;;;;;;;4.68;2.00;;;4.40;99.90;;;;;;5101591;28;20024;-81
2023/04/03 10:45:21;;;;;;;4.43;1.73;;;4.40;99.90;;;;;;5101136;28;20031;-81
2023/04/03 10:48:11;;;;;;;2.65;1.58;;;4.40;99.90;;;;;;5120083;28;20019;-81
2023/04/03 10:50:47;;;;;;;3.33;1.77;;;4.40;99.90;;;;;;5123741;28;20028;-80
2023/04/03 10:53:35;;;;;;;2.80;1.60;;;4.40;99.90;;;;;;5101269;28;20024;-81
2023/04/03 10:56:10;;;;;;;2.85;1.83;;;4.40;99.90;;;;;;5101688;28;20334;-80
2023/04/03 10:58:43;;;;;;;3.08;1.85;;;4.50;99.90;;;;;;5101033;28;20023;-81
2023/04/03 11:01:14;;;;;;;2.70;1.58;;;4.60;99.90;;;;;;5118850;28;20388;-81
2023/04/03 11:03:45;;;;;;;4.70;2.17;;;4.60;99.90;;;;;;5119211;28;20011;-81
2023/04/03 11:06:14;;;;;;;2.40;1.77;;;4.70;99.90;;;;;;5100784;28;20024;-81
2023/04/03 11:09:15;;;;;;;3.90;1.75;;;4.70;99.90;;;;;;5100829;28;20042;-81
2023/04/03 11:11:47;;;;;;;2.85;1.73;;;4.70;99.90;;;;;;5119465;28;20100;-81
2023/04/03 11:14:27;;;;;;;3.35;1.73;;;4.70;99.90;;;;;;5119077;28;20024;-81
2023/04/03 11:17:23;;;;;;;2.63;1.50;;;4.70;99.90;;;;;;5100353;28;20027;-80
2023/04/03 11:20:27;;;;;;;2.92;1.77;;;4.70;99.90;;;;;;5065155;28;20024;-81
2023/04/03 11:22:58;;;;;;;2.22;1.50;;;4.70;99.90;;;;;;5100410;28;20031;-81
2023/04/03 11:25:26;;;;;;;2.72;1.55;;;4.70;99.90;;;;;;5118585;28;20023;-81
2023/04/03 11:27:55;;;;;;;2.78;1.75;;;4.70;99.90;;;;;;5118603;28;20500;-81
2023/04/03 11:30:30;;;;;;;2.53;1.63;;;4.80;99.90;;;;;;5100454;28;20114;-81
2023/04/03 11:33:29;;;;;;;3.95;1.52;;;4.70;99.90;;;;;;5118245;28;20034;-81
2023/04/03 11:36:04;;;;;;;3.13;1.58;;;4.80;99.90;;;;;;5119370;28;20397;-80
2023/04/03 11:38:36;;;;;;;3.47;1.52;;;5.00;99.90;;;;;;5119480;28;20027;-81
2023/04/03 11:41:07;;;;;;;4.20;1.60;;;5.00;99.90;;;;;;5102334;28;20016;-81
2023/04/03 11:43:34;;;;;;;3.10;1.75;;;5.20;99.90;;;;;;5100813;28;20023;-81
2023/04/03 11:46:05;;;;;;;3.10;1.45;;;5.30;99.90;;;;;;5120286;28;20039;-80
2023/04/03 11:48:33;;;;;;;2.03;1.40;;;5.30;99.90;;;;;;5122458;28;20622;-81
2023/04/03 11:51:20;;;;;;;2.40;1.63;;;5.20;98.60;;;;;;5122100;28;20035;-81
2023/04/03 11:53:47;;;;;;;2.10;1.40;;;5.20;99.90;;;;;;5101968;28;20072;-80
2023/04/03 11:56:28;;;;;;;2.58;1.50;;;5.20;99.10;;;;;;5102079;28;20072;-80
2023/04/03 11:59:22;;;;;;;2.40;1.67;;;5.30;99.90;;;;;;5101953;28;20031;-80
2023/04/03 12:01:49;;;;;;;4.15;1.40;;;5.30;98.60;;;;;;5109493;28;20096;-80
2023/04/03 12:04:18;;;;;;;2.72;1.40;;;5.30;99.00;;;;;;5120808;28;20019;-80
2023/04/03 12:07:16;;;;;;;2.20;1.52;;;5.30;98.90;;;;;;5104667;28;20443;-81
2023/04/03 12:09:42;;;;;;;2.55;1.40;;;5.40;98.80;;;;;;5120793;28;20439;-80
2023/04/03 12:12:36;;;;;;;5.35;1.50;;;5.50;99.10;;;;;;5121762;28;20028;-81
2023/04/03 12:15:22;;;;;;;2.85;1.85;;;5.50;99.90;;;;;;5098911;28;20028;-81
2023/04/03 12:17:48;;;;;;;5.75;1.70;;;5.50;99.80;;;;;;5102637;28;20532;-80
2023/04/03 12:20:53;;;;;;;3.85;1.98;;;5.50;99.60;;;;;;5085948;28;20028;-81
2023/04/03 12:23:55;;;;;;;3.30;1.90;;;5.30;99.30;;;;;;4985426;28;20030;-80
2023/04/03 12:26:27;;;;;;;3.08;1.63;;;5.20;99.70;;;;;;5119657;28;20063;-80
2023/04/03 12:28:55;;;;;;;2.30;1.63;;;5.20;99.90;;;;;;5120520;28;20077;-81
2023/04/03 12:31:25;;;;;;;3.00;1.85;;;5.20;99.90;;;;;;5120073;28;20028;-81
2023/04/03 12:34:10;;;;;;;4.13;1.80;;;5.10;99.90;;;;;;5102229;28;20036;-81
2023/04/03 12:37:29;;;;;;;3.85;1.63;;;5.10;99.90;;;;;;5120695;28;20071;-80
2023/04/03 12:40:31;;;;;;;3.15;1.90;;;5.20;98.80;;;;;;5001175;28;20076;-81
2023/04/03 12:43:27;;;;;;;3.20;1.95;;;5.10;99.30;;;;;;5016198;28;20041;-81
2023/04/03 12:46:04;;;;;;;4.93;1.90;;;5.00;99.90;;;;;;5111135;28;20088;-80
2023/04/03 12:48:47;;;;;;;3.05;1.48;;;5.00;99.90;;;;;;5100787;28;20027;-80
2023/04/03 12:51:25;;;;;;;2.67;1.60;;;5.00;99.90;;;;;;5101568;28;20027;-80
2023/04/03 12:53:57;;;;;;;2.90;1.70;;;5.00;99.90;;;;;;5117879;28;20106;-80
2023/04/03 12:56:26;;;;;;;4.07;2.13;;;4.90;99.90;;;;;;5119084;28;20019;-81
2023/04/03 12:58:53;;;;;;;2.85;1.70;;;4.90;99.90;;;;;;5100698;28;20023;-81
2023/04/03 13:01:25;;;;;;;2.55;1.65;;;4.90;99.90;;;;;;5100852;28;20481;-80
2023/04/03 13:03:58;;;;;;;2.60;1.50;;;4.90;99.90;;;;;;5100545;28;20481;-81
2023/04/03 13:06:28;;;;;;;2.70;1.55;;;5.00;99.90;;;;;;5067467;28;20050;-82
2023/04/03 13:08:57;;;;;;;3.33;1.73;;;5.00;97.20;;;;;;5101016;28;20028;-81
2023/04/03 13:11:25;;;;;;;2.67;1.60;;;5.00;99.30;;;;;;5119602;28;20494;-80
2023/04/03 13:14:05;;;;;;;2.95;1.58;;;4.90;99.40;;;;;;5100630;28;20491;-81
2023/04/03 13:16:33;;;;;;;2.15;1.27;;;4.90;99.90;;;;;;5119014;28;20035;-80